Time;durP1;ratioP1;P1;durP2;ratioP2;P2;SDS_P1;SDS_P2;PMS_P1;PMS_P2;Temp;Humidity;BMP_temperature;BMP_pressure;BME280_temperature;BME280_humidity;BME280_pressure;Samples;Min_cycle;Max_cycle;Signal;HPM_P1;HPM_P2
2022/01/21 00:01:51;;;;;;;11.43;4.78;;;5.20;76.60;;;;;;5054252;28;20128;-72
2022/01/21 00:04:17;;;;;;;8.52;4.43;;;5.10;76.50;;;;;;5055590;28;20025;-72
2022/01/21 00:06:42;;;;;;;11.07;4.28;;;5.10;76.30;;;;;;5085997;28;20053;-72
2022/01/21 00:09:08;;;;;;;11.88;4.50;;;5.10;76.80;;;;;;5036750;28;20472;-72
2022/01/21 00:11:36;;;;;;;9.25;4.20;;;5.10;76.90;;;;;;5044398;28;20563;-72
2022/01/21 00:14:02;;;;;;;7.95;4.22;;;5.00;76.70;;;;;;5037004;28;20024;-72
2022/01/21 00:16:29;;;;;;;9.60;4.63;;;4.90;76.60;;;;;;5036788;28;20491;-72
2022/01/21 00:19:11;;;;;;;9.38;4.38;;;4.80;77.00;;;;;;5039341;28;21490;-72
2022/01/21 00:30:14;;;;;;;5.78;3.60;;;4.80;77.40;;;;;;5037030;28;20067;-72
2022/01/21 00:32:42;;;;;;;10.32;4.65;;;4.80;77.00;;;;;;5041253;28;20034;-72
2022/01/21 00:35:08;;;;;;;9.38;4.63;;;4.70;77.50;;;;;;5036473;28;20100;-72
2022/01/21 00:37:34;;;;;;;10.65;4.20;;;4.70;77.40;;;;;;5034995;28;20057;-72
2022/01/21 00:40:01;;;;;;;8.85;3.95;;;4.70;77.30;;;;;;5036747;28;20021;-72
2022/01/21 00:45:12;;;;;;;11.13;4.85;;;4.80;77.10;;;;;;5050702;28;20544;-72
2022/01/21 00:47:37;;;;;;;7.20;4.30;;;4.90;77.30;;;;;;5034873;28;20025;-72
2022/01/21 00:50:04;;;;;;;5.85;4.18;;;4.90;76.70;;;;;;5068478;28;20026;-72
2022/01/21 00:52:30;;;;;;;9.00;4.13;;;4.90;77.10;;;;;;5036044;28;20159;-72
2022/01/21 00:54:55;;;;;;;9.00;3.95;;;4.80;77.00;;;;;;5036183;28;20053;-72
2022/01/21 00:57:21;;;;;;;11.27;4.90;;;4.80;77.20;;;;;;5036138;28;20034;-72
2022/01/21 00:59:47;;;;;;;8.85;4.05;;;4.80;77.20;;;;;;5035913;28;20021;-72
2022/01/21 01:02:12;;;;;;;8.93;4.35;;;4.70;76.90;;;;;;5065265;28;20028;-72
2022/01/21 01:04:38;;;;;;;12.90;4.65;;;4.70;77.60;;;;;;5060836;28;20438;-72
2022/01/21 01:07:04;;;;;;;4.28;3.65;;;4.80;77.60;;;;;;5055785;28;20549;-72
2022/01/21 01:09:30;;;;;;;9.07;4.55;;;4.80;77.60;;;;;;5054469;28;20384;-72
2022/01/21 01:20:02;;;;;;;6.88;4.53;;;4.80;77.10;;;;;;5055174;28;20105;-72
2022/01/21 01:22:40;;;;;;;11.13;4.03;;;4.80;77.50;;;;;;5054434;28;20033;-72
2022/01/21 01:27:51;;;;;;;9.30;4.20;;;4.70;77.60;;;;;;5055771;28;20079;-72
2022/01/21 01:30:20;;;;;;;9.43;4.38;;;4.70;77.50;;;;;;5055477;28;20021;-72
2022/01/21 01:32:47;;;;;;;6.85;4.15;;;4.70;77.70;;;;;;5075398;28;20499;-72
2022/01/21 01:35:15;;;;;;;7.57;4.07;;;4.80;77.20;;;;;;5035429;28;20029;-72
2022/01/21 01:40:40;;;;;;;9.68;4.47;;;4.70;77.10;;;;;;5048771;28;20115;-72
2022/01/21 01:51:19;;;;;;;8.20;3.75;;;4.80;77.40;;;;;;5055478;28;20055;-72
2022/01/21 01:54:04;;;;;;;7.13;3.88;;;4.70;77.20;;;;;;5053830;28;20032;-72
2022/01/21 01:56:34;;;;;;;14.57;5.57;;;4.80;77.00;;;;;;5047971;28;20408;-72
2022/01/21 01:59:00;;;;;;;8.73;4.22;;;4.70;77.30;;;;;;5034947;28;20116;-72
2022/01/21 02:01:25;;;;;;;9.20;4.30;;;4.70;77.30;;;;;;5038569;28;20067;-72
2022/01/21 02:03:51;;;;;;;8.40;4.50;;;4.70;77.30;;;;;;5053652;28;20074;-72
2022/01/21 02:06:17;;;;;;;10.68;4.75;;;4.70;77.60;;;;;;5035672;28;20040;-72
2022/01/21 02:08:43;;;;;;;8.68;3.92;;;4.60;77.60;;;;;;5035052;28;20040;-72
2022/01/21 02:11:08;;;;;;;9.73;4.70;;;4.60;78.00;;;;;;5034978;28;20018;-72
2022/01/21 02:13:41;;;;;;;9.98;6.10;;;4.60;77.90;;;;;;5034876;28;20032;-72
2022/01/21 02:21:41;;;;;;;9.43;4.45;;;4.60;77.70;;;;;;5053679;28;20044;-72
2022/01/21 02:24:17;;;;;;;9.73;4.15;;;4.60;78.00;;;;;;5053661;28;20028;-72
2022/01/21 02:26:44;;;;;;;10.23;4.60;;;4.50;78.10;;;;;;5034855;28;20419;-72
2022/01/21 02:29:11;;;;;;;10.05;4.28;;;4.50;78.10;;;;;;5066667;28;20029;-72
2022/01/21 02:31:39;;;;;;;6.38;3.75;;;4.50;77.80;;;;;;5034811;28;20117;-72
2022/01/21 02:34:06;;;;;;;7.40;4.07;;;4.40;78.30;;;;;;5034676;28;20018;-72
2022/01/21 02:36:32;;;;;;;9.43;4.57;;;4.40;78.20;;;;;;5034380;28;20432;-72
2022/01/21 02:38:59;;;;;;;8.90;4.22;;;4.40;78.00;;;;;;5033307;28;20030;-72
2022/01/21 02:41:24;;;;;;;9.52;4.10;;;4.40;78.20;;;;;;5066665;28;20037;-72
2022/01/21 02:43:51;;;;;;;9.95;4.65;;;4.40;78.20;;;;;;5038671;28;20068;-72
2022/01/21 02:46:18;;;;;;;9.05;4.30;;;4.30;78.20;;;;;;5034355;28;20053;-72
2022/01/21 02:48:44;;;;;;;13.70;4.78;;;4.30;78.40;;;;;;5052969;28;20025;-72
2022/01/21 02:51:12;;;;;;;10.30;4.60;;;4.30;78.30;;;;;;5046670;28;20384;-72
2022/01/21 02:56:17;;;;;;;8.30;4.05;;;4.40;78.40;;;;;;5038559;28;20056;-72
2022/01/21 02:58:44;;;;;;;11.30;4.53;;;4.30;78.40;;;;;;5038287;28;20120;-72
2022/01/21 03:01:10;;;;;;;9.60;4.60;;;4.30;78.70;;;;;;5039494;28;20034;-71
2022/01/21 03:03:36;;;;;;;12.50;4.47;;;4.20;79.00;;;;;;5052537;28;20039;-72
2022/01/21 03:06:02;;;;;;;6.57;4.28;;;4.10;79.00;;;;;;5058323;28;20991;-72
2022/01/21 03:08:29;;;;;;;11.27;4.68;;;4.10;79.20;;;;;;5057970;28;20057;-72
2022/01/21 03:10:56;;;;;;;9.38;4.10;;;4.00;79.00;;;;;;5058256;28;20033;-72
2022/01/21 03:13:22;;;;;;;11.32;4.55;;;3.90;79.50;;;;;;5071987;28;20029;-72
2022/01/21 03:15:52;;;;;;;9.68;4.28;;;4.00;79.40;;;;;;5038048;28;20025;-73
2022/01/21 03:18:18;;;;;;;6.88;4.40;;;3.80;79.70;;;;;;5053122;28;20025;-74
2022/01/21 03:20:44;;;;;;;6.88;4.15;;;3.80;79.80;;;;;;5045719;28;20038;-74
2022/01/21 03:23:15;;;;;;;10.48;4.65;;;3.80;80.00;;;;;;5036616;28;20365;-74
2022/01/21 03:25:44;;;;;;;9.00;4.35;;;3.80;79.70;;;;;;5037826;28;20079;-74
2022/01/21 03:28:10;;;;;;;6.85;4.30;;;3.90;79.70;;;;;;5038317;28;20029;-74
2022/01/21 03:30:37;;;;;;;4.78;4.20;;;3.90;79.40;;;;;;5056172;28;20029;-74
2022/01/21 03:33:02;;;;;;;10.02;4.38;;;4.00;79.20;;;;;;5057729;28;20084;-74
2022/01/21 03:35:28;;;;;;;7.55;4.22;;;4.00;79.30;;;;;;5042571;28;20037;-74
2022/01/21 03:37:54;;;;;;;7.65;4.05;;;3.90;79.50;;;;;;5037685;28;20088;-74
2022/01/21 03:40:19;;;;;;;7.57;4.20;;;3.90;79.60;;;;;;5052615;28;20866;-74
2022/01/21 03:42:45;;;;;;;4.95;4.35;;;3.80;79.70;;;;;;5046096;28;20056;-74
2022/01/21 03:45:12;;;;;;;8.05;4.80;;;3.80;79.70;;;;;;5057726;28;20058;-74
2022/01/21 03:47:38;;;;;;;8.07;4.32;;;3.70;79.80;;;;;;5081689;28;20404;-74
2022/01/21 03:50:24;;;;;;;6.50;4.30;;;3.70;80.00;;;;;;5052245;28;20037;-74
2022/01/21 03:52:50;;;;;;;8.75;5.10;;;3.70;80.20;;;;;;5035982;28;20207;-74
2022/01/21 03:55:16;;;;;;;5.85;4.47;;;3.70;80.30;;;;;;5042347;28;20047;-73
2022/01/21 03:57:42;;;;;;;8.70;4.60;;;3.60;80.50;;;;;;5055809;28;20090;-74
2022/01/21 04:00:10;;;;;;;7.28;4.55;;;3.60;80.60;;;;;;5049207;28;20022;-74
2022/01/21 04:02:36;;;;;;;15.23;4.40;;;3.60;80.60;;;;;;5035939;28;20037;-74
2022/01/21 04:05:02;;;;;;;6.80;3.85;;;3.60;80.40;;;;;;5035733;28;20488;-74
2022/01/21 04:07:28;;;;;;;8.45;4.03;;;3.60;80.60;;;;;;5037006;28;20045;-74
2022/01/21 04:09:53;;;;;;;7.35;3.90;;;3.50;80.60;;;;;;5041488;28;20077;-74
2022/01/21 04:12:19;;;;;;;8.35;4.30;;;3.50;80.50;;;;;;5056970;28;20395;-74
2022/01/21 04:14:45;;;;;;;5.90;4.20;;;3.50;80.70;;;;;;5053776;28;20580;-74
2022/01/21 04:17:10;;;;;;;8.23;4.53;;;3.50;80.50;;;;;;5035534;28;20107;-74
2022/01/21 04:19:36;;;;;;;8.32;5.18;;;3.40;80.50;;;;;;5045085;28;20056;-74
2022/01/21 04:22:02;;;;;;;5.90;4.20;;;3.50;80.60;;;;;;5055614;28;20088;-73
2022/01/21 04:24:28;;;;;;;10.40;4.60;;;3.40;80.70;;;;;;5052874;28;20083;-74
2022/01/21 04:26:53;;;;;;;6.60;4.03;;;3.30;80.70;;;;;;5036350;28;20013;-74
2022/01/21 04:29:19;;;;;;;8.27;4.53;;;3.40;80.90;;;;;;5052005;28;20031;-74
2022/01/21 04:31:45;;;;;;;8.95;4.07;;;3.50;80.40;;;;;;5036742;28;20029;-73
2022/01/21 04:34:10;;;;;;;17.75;5.43;;;3.40;80.90;;;;;;5036396;28;20099;-73
2022/01/21 04:36:36;;;;;;;5.45;3.65;;;3.30;80.90;;;;;;5036518;28;20104;-74
2022/01/21 04:39:04;;;;;;;14.00;4.65;;;3.30;81.00;;;;;;5036472;28;20087;-74
2022/01/21 04:49:40;;;;;;;7.97;3.92;;;3.20;81.40;;;;;;5056246;28;20048;-74
2022/01/21 04:52:06;;;;;;;9.93;4.60;;;3.20;81.40;;;;;;5037788;28;20026;-74
2022/01/21 04:54:33;;;;;;;7.78;4.32;;;3.20;81.50;;;;;;5034758;28;20196;-74
2022/01/21 04:57:00;;;;;;;10.57;5.07;;;3.20;81.40;;;;;;5036021;28;20499;-74
2022/01/21 04:59:26;;;;;;;13.77;5.43;;;3.20;81.10;;;;;;5034765;28;20030;-73
2022/01/21 05:01:52;;;;;;;6.18;4.18;;;3.20;81.30;;;;;;5034913;28;20021;-74
2022/01/21 05:04:19;;;;;;;12.55;4.80;;;3.20;81.40;;;;;;5034378;28;20026;-74
2022/01/21 05:06:46;;;;;;;7.13;4.55;;;3.20;81.20;;;;;;5035823;28;20033;-74
2022/01/21 05:09:15;;;;;;;8.63;4.38;;;3.20;81.30;;;;;;5034588;28;20033;-74
2022/01/21 05:11:41;;;;;;;7.90;4.50;;;3.10;81.60;;;;;;5035477;28;20052;-74
2022/01/21 05:14:18;;;;;;;6.53;4.57;;;3.10;81.60;;;;;;5035453;28;20029;-74
2022/01/21 05:16:49;;;;;;;11.20;4.85;;;3.10;81.50;;;;;;5080359;28;20028;-74
2022/01/21 05:19:17;;;;;;;11.02;5.22;;;3.10;81.60;;;;;;5055585;28;20092;-74
2022/01/21 05:21:50;;;;;;;6.65;4.45;;;3.10;81.60;;;;;;5087610;28;20756;-74
2022/01/21 05:24:17;;;;;;;11.80;5.28;;;3.10;81.70;;;;;;5050177;28;20033;-74
2022/01/21 05:26:52;;;;;;;8.20;5.05;;;3.10;82.00;;;;;;5035994;28;20053;-74
2022/01/21 05:29:19;;;;;;;10.10;4.50;;;3.00;81.90;;;;;;5035639;28;20029;-74
2022/01/21 05:31:46;;;;;;;8.05;5.30;;;3.10;81.90;;;;;;5052775;28;20021;-74
2022/01/21 05:34:12;;;;;;;7.35;4.65;;;3.10;81.90;;;;;;5055261;28;20064;-74
2022/01/21 05:36:40;;;;;;;10.18;5.55;;;3.10;82.00;;;;;;5055558;28;20017;-74
2022/01/21 05:39:16;;;;;;;9.52;5.03;;;3.10;81.80;;;;;;5039772;28;20506;-74
2022/01/21 05:41:47;;;;;;;8.18;4.35;;;3.20;81.80;;;;;;5051738;28;20035;-74
2022/01/21 05:46:22;;;;;;;5.82;4.50;;;3.10;81.60;;;;;;5037259;28;20025;-74
2022/01/21 05:47:01;;;;;;;10.02;5.13;;;3.10;81.70;;;;;;5035656;28;20555;-75
2022/01/21 05:49:30;;;;;;;9.25;4.55;;;3.00;81.90;;;;;;5053668;28;20121;-73
2022/01/21 05:52:15;;;;;;;10.13;5.28;;;3.00;82.00;;;;;;5054078;28;20017;-76
2022/01/21 05:54:43;;;;;;;8.63;4.85;;;3.10;82.00;;;;;;5037777;28;20029;-78
2022/01/21 05:57:13;;;;;;;8.88;4.88;;;3.00;82.10;;;;;;5035053;28;20487;-77
2022/01/21 05:59:41;;;;;;;10.00;4.72;;;3.00;82.20;;;;;;5034521;28;20052;-76
2022/01/21 06:02:07;;;;;;;8.75;4.28;;;3.00;82.30;;;;;;5035083;28;20104;-76
2022/01/21 06:04:34;;;;;;;8.15;4.93;;;3.00;82.40;;;;;;5046505;28;20026;-75
2022/01/21 06:07:00;;;;;;;10.20;4.75;;;3.00;82.40;;;;;;5051628;28;20084;-74
2022/01/21 06:09:30;;;;;;;7.50;4.97;;;3.00;82.10;;;;;;5044617;28;20056;-74
2022/01/21 06:11:56;;;;;;;9.80;5.50;;;3.00;82.20;;;;;;5047657;28;20396;-74
2022/01/21 06:14:21;;;;;;;11.40;4.95;;;2.90;82.50;;;;;;5040874;28;20021;-74
2022/01/21 06:16:47;;;;;;;8.10;5.18;;;2.90;82.30;;;;;;5053479;28;20033;-74
2022/01/21 06:19:13;;;;;;;6.65;4.57;;;2.90;82.40;;;;;;5050700;28;20082;-73
2022/01/21 06:21:39;;;;;;;9.25;4.43;;;2.90;82.50;;;;;;5056679;28;20048;-72
2022/01/21 06:24:04;;;;;;;9.23;5.03;;;2.90;82.60;;;;;;5044185;28;20435;-73
2022/01/21 06:26:30;;;;;;;9.40;4.18;;;2.80;82.80;;;;;;5050126;28;20034;-72
2022/01/21 06:28:56;;;;;;;6.32;4.80;;;2.80;82.80;;;;;;5046579;28;20033;-73
2022/01/21 06:31:21;;;;;;;7.43;4.55;;;2.80;82.60;;;;;;5037600;28;20109;-73
2022/01/21 06:33:47;;;;;;;7.90;5.00;;;2.80;82.90;;;;;;5037724;28;20029;-73
2022/01/21 06:36:13;;;;;;;8.57;5.13;;;2.80;82.90;;;;;;5036373;28;20025;-73
2022/01/21 06:38:38;;;;;;;9.52;5.20;;;2.80;83.00;;;;;;5056941;28;20109;-73
2022/01/21 06:41:04;;;;;;;12.07;5.10;;;2.80;83.30;;;;;;5056676;28;20021;-73
2022/01/21 06:43:30;;;;;;;11.25;5.32;;;2.80;83.30;;;;;;5054718;28;20025;-73
2022/01/21 06:45:56;;;;;;;11.10;5.25;;;2.80;83.30;;;;;;5054099;28;20022;-73
2022/01/21 06:48:22;;;;;;;16.90;6.00;;;2.90;83.10;;;;;;5037221;28;20017;-73
2022/01/21 06:50:48;;;;;;;15.85;5.55;;;2.90;83.10;;;;;;5038811;28;20036;-74
2022/01/21 06:53:13;;;;;;;8.30;5.65;;;2.90;82.90;;;;;;5084464;28;20017;-75
2022/01/21 06:55:39;;;;;;;9.93;5.43;;;3.00;83.00;;;;;;5055054;28;20033;-75
2022/01/21 06:58:06;;;;;;;9.98;4.55;;;3.00;82.90;;;;;;5046896;28;20033;-75
2022/01/21 07:00:32;;;;;;;9.63;4.60;;;3.10;82.70;;;;;;5054689;28;20144;-75
2022/01/21 07:02:58;;;;;;;9.55;4.57;;;3.00;82.60;;;;;;5055775;28;20025;-75
2022/01/21 07:05:25;;;;;;;5.90;4.22;;;3.10;82.60;;;;;;5052544;28;20021;-74
2022/01/21 07:07:51;;;;;;;9.60;5.13;;;3.00;82.70;;;;;;5037691;28;20518;-75
2022/01/21 07:10:17;;;;;;;7.45;4.20;;;3.00;82.80;;;;;;5043775;28;20040;-75
2022/01/21 07:12:44;;;;;;;7.63;5.28;;;3.00;82.90;;;;;;5057642;28;20021;-75
2022/01/21 07:15:15;;;;;;;17.25;7.35;;;3.00;83.00;;;;;;5056568;28;20029;-75
2022/01/21 07:17:42;;;;;;;10.52;7.07;;;3.00;83.00;;;;;;5055533;28;20025;-73
2022/01/21 07:20:09;;;;;;;10.77;8.02;;;2.90;83.10;;;;;;5056432;28;20017;-74
2022/01/21 07:22:34;;;;;;;11.65;7.53;;;2.90;83.20;;;;;;5055745;28;20021;-74
2022/01/21 07:25:00;;;;;;;11.98;6.22;;;2.90;83.20;;;;;;5054677;28;20032;-74
2022/01/21 07:27:26;;;;;;;22.15;7.75;;;3.00;83.10;;;;;;5037678;28;20022;-75
2022/01/21 07:29:52;;;;;;;10.38;6.65;;;2.90;83.20;;;;;;5037737;28;20522;-75
2022/01/21 07:32:17;;;;;;;9.13;5.90;;;2.90;83.20;;;;;;5044024;28;20775;-75
2022/01/21 07:34:43;;;;;;;14.85;5.55;;;2.90;83.10;;;;;;5053679;28;20033;-75
2022/01/21 07:37:09;;;;;;;11.70;5.70;;;3.00;83.10;;;;;;5055589;28;20493;-75
2022/01/21 07:39:35;;;;;;;19.52;9.68;;;2.90;83.20;;;;;;5039679;28;20073;-75
2022/01/21 07:42:00;;;;;;;17.95;11.48;;;2.90;83.20;;;;;;5041030;28;20025;-75
2022/01/21 07:44:26;;;;;;;14.73;9.88;;;2.80;83.20;;;;;;5055020;28;20445;-75
2022/01/21 07:46:52;;;;;;;17.60;10.63;;;2.90;83.40;;;;;;5056925;28;20023;-75
2022/01/21 07:49:18;;;;;;;26.75;11.50;;;2.80;83.10;;;;;;5054353;28;20063;-75
2022/01/21 07:51:44;;;;;;;17.77;9.43;;;2.90;83.20;;;;;;5051428;28;20450;-75
2022/01/21 07:54:10;;;;;;;14.00;8.02;;;2.90;82.80;;;;;;5036768;28;20033;-75
2022/01/21 07:56:36;;;;;;;15.77;7.43;;;2.90;82.80;;;;;;5052658;28;20029;-75
2022/01/21 07:59:08;;;;;;;14.23;7.32;;;2.90;82.80;;;;;;5037016;28;20369;-75
2022/01/21 08:01:34;;;;;;;15.82;6.65;;;3.00;82.90;;;;;;5036920;28;20021;-75
2022/01/21 08:04:01;;;;;;;10.82;6.30;;;3.10;82.60;;;;;;5035107;28;20029;-75
2022/01/21 08:06:27;;;;;;;12.90;5.53;;;3.20;82.20;;;;;;5036960;28;20025;-75
2022/01/21 08:08:57;;;;;;;15.80;6.03;;;3.10;81.80;;;;;;5068805;28;20040;-75
2022/01/21 08:11:23;;;;;;;8.90;5.38;;;3.10;82.20;;;;;;5044491;28;20023;-75
2022/01/21 08:13:50;;;;;;;16.52;5.63;;;3.20;82.20;;;;;;5044929;28;20128;-75
2022/01/21 08:16:16;;;;;;;5.15;4.00;;;3.20;82.30;;;;;;5045854;28;20060;-75
2022/01/21 08:18:42;;;;;;;14.65;5.05;;;3.20;82.40;;;;;;5052447;28;20036;-75
2022/01/21 08:21:07;;;;;;;7.10;5.10;;;3.20;82.50;;;;;;5088768;28;20495;-75
2022/01/21 08:23:33;;;;;;;9.25;4.97;;;3.20;82.60;;;;;;5054567;28;20433;-75
2022/01/21 08:25:59;;;;;;;9.88;4.95;;;3.20;82.60;;;;;;5056361;28;20029;-75
2022/01/21 08:28:25;;;;;;;6.97;4.47;;;3.20;82.90;;;;;;5085268;28;20037;-75
2022/01/21 08:30:51;;;;;;;11.93;4.78;;;3.20;83.10;;;;;;5046355;28;20112;-75
2022/01/21 08:33:17;;;;;;;8.73;5.05;;;3.20;83.00;;;;;;5044992;28;20151;-75
2022/01/21 08:35:42;;;;;;;12.40;4.80;;;3.20;83.00;;;;;;5036343;28;20060;-75
2022/01/21 08:38:08;;;;;;;18.73;5.78;;;3.30;82.80;;;;;;5068134;28;20037;-75
2022/01/21 08:40:34;;;;;;;12.52;4.97;;;3.30;82.90;;;;;;5044080;28;20108;-75
2022/01/21 08:43:00;;;;;;;12.38;5.00;;;3.30;83.10;;;;;;5056136;28;20083;-75
2022/01/21 08:45:29;;;;;;;11.30;4.95;;;3.40;83.10;;;;;;5054327;28;20092;-74
2022/01/21 08:47:55;;;;;;;13.93;5.60;;;3.50;82.60;;;;;;5052431;28;20033;-75
2022/01/21 08:50:21;;;;;;;9.40;4.70;;;3.70;82.60;;;;;;5034514;28;20036;-75
2022/01/21 08:52:48;;;;;;;9.80;5.45;;;3.70;82.30;;;;;;5034626;28;20029;-75
2022/01/21 08:55:16;;;;;;;8.73;4.47;;;3.80;82.30;;;;;;5075139;28;20048;-75
2022/01/21 08:57:44;;;;;;;9.38;4.40;;;3.90;82.20;;;;;;5054201;28;20033;-75
2022/01/21 09:00:21;;;;;;;11.23;4.75;;;4.10;81.90;;;;;;5051501;28;20029;-76
2022/01/21 09:02:47;;;;;;;10.52;4.90;;;4.30;81.70;;;;;;5035794;28;20112;-75
2022/01/21 09:05:13;;;;;;;15.63;4.63;;;4.50;81.00;;;;;;5035760;28;20020;-75
2022/01/21 09:07:39;;;;;;;9.05;4.32;;;4.50;80.80;;;;;;5034389;28;20057;-75
2022/01/21 09:10:07;;;;;;;10.88;5.03;;;4.50;80.60;;;;;;5035777;28;20515;-75
2022/01/21 09:12:33;;;;;;;14.15;5.32;;;4.60;80.70;;;;;;5052995;28;20048;-75
2022/01/21 09:15:00;;;;;;;16.83;6.10;;;4.70;80.50;;;;;;5055539;28;20024;-75
2022/01/21 09:17:25;;;;;;;8.27;5.72;;;4.70;80.60;;;;;;5049044;28;20041;-75
2022/01/21 09:19:51;;;;;;;16.27;5.05;;;4.80;80.40;;;;;;5044628;28;20075;-75
2022/01/21 09:22:17;;;;;;;8.73;5.15;;;4.80;80.00;;;;;;5071285;28;20037;-76
2022/01/21 09:24:43;;;;;;;10.85;3.92;;;4.80;80.20;;;;;;5035576;28;20026;-76
2022/01/21 09:27:08;;;;;;;9.95;5.25;;;5.00;79.90;;;;;;5035632;28;20025;-75
2022/01/21 09:29:35;;;;;;;9.63;5.50;;;5.20;79.20;;;;;;5035084;28;20025;-75
2022/01/21 09:32:02;;;;;;;10.45;6.03;;;5.80;78.00;;;;;;5054000;28;20028;-75
2022/01/21 09:34:28;;;;;;;8.23;5.13;;;6.40;76.00;;;;;;5053052;28;20043;-75
2022/01/21 09:36:56;;;;;;;13.93;6.75;;;7.10;73.40;;;;;;5035294;28;20029;-76
2022/01/21 09:39:23;;;;;;;9.23;4.60;;;7.70;70.90;;;;;;5035290;28;20048;-75
2022/01/21 09:41:49;;;;;;;10.43;8.07;;;8.20;69.40;;;;;;5035951;28;20049;-76
2022/01/21 09:44:17;;;;;;;7.55;4.03;;;8.50;68.40;;;;;;5055039;28;20029;-76
2022/01/21 09:46:46;;;;;;;15.73;8.52;;;8.00;69.10;;;;;;5049109;28;20526;-75
2022/01/21 09:51:54;;;;;;;14.18;12.80;;;8.60;69.30;;;;;;5052701;28;20024;-76
2022/01/21 09:54:25;;;;;;;19.92;12.20;;;8.90;67.50;;;;;;5054184;28;20166;-74
2022/01/21 09:56:53;;;;;;;9.30;5.15;;;9.30;66.40;;;;;;5049791;28;20029;-76
2022/01/21 09:59:22;;;;;;;12.38;4.53;;;9.30;65.70;;;;;;5052937;28;20024;-75
2022/01/21 10:01:54;;;;;;;11.55;4.90;;;8.80;66.80;;;;;;5049572;28;20036;-76
2022/01/21 10:04:24;;;;;;;12.32;4.63;;;8.30;68.80;;;;;;5054286;28;20017;-75
2022/01/21 10:06:51;;;;;;;11.52;3.65;;;7.80;70.10;;;;;;5049075;28;20396;-75
2022/01/21 10:09:20;;;;;;;9.00;5.03;;;7.50;71.10;;;;;;5054340;28;20045;-76
2022/01/21 10:11:48;;;;;;;9.88;3.67;;;7.50;72.00;;;;;;5051853;28;20052;-75
2022/01/21 10:14:14;;;;;;;10.32;3.03;;;7.40;72.00;;;;;;5054317;28;20025;-75
2022/01/21 10:16:43;;;;;;;9.00;2.72;;;7.30;72.20;;;;;;5054698;28;20035;-75
2022/01/21 10:19:10;;;;;;;8.63;3.45;;;7.30;72.10;;;;;;5053159;28;20021;-75
2022/01/21 10:21:38;;;;;;;6.35;3.17;;;7.20;72.60;;;;;;5038375;28;20028;-73
2022/01/21 10:24:09;;;;;;;9.25;3.80;;;7.10;72.20;;;;;;5034694;28;20108;-75
2022/01/21 10:26:35;;;;;;;8.27;3.20;;;7.20;72.80;;;;;;5033317;28;20022;-75
2022/01/21 10:29:01;;;;;;;12.23;5.53;;;7.30;72.40;;;;;;5034510;28;20117;-76
2022/01/21 10:31:27;;;;;;;10.77;3.33;;;7.40;72.80;;;;;;5034382;28;20058;-75
2022/01/21 10:33:59;;;;;;;9.68;2.83;;;7.40;72.40;;;;;;5034570;28;20045;-76
2022/01/21 10:36:29;;;;;;;10.63;4.05;;;7.30;71.40;;;;;;5034371;28;20051;-75
2022/01/21 10:39:04;;;;;;;18.60;6.32;;;7.40;71.60;;;;;;5034523;28;20033;-75
2022/01/21 10:41:33;;;;;;;6.75;3.78;;;7.40;71.30;;;;;;5034556;28;20041;-75
2022/01/21 10:44:07;;;;;;;10.88;4.50;;;7.40;70.90;;;;;;5054604;28;20017;-76
2022/01/21 10:46:33;;;;;;;13.48;5.53;;;7.30;70.70;;;;;;5051297;28;20031;-76
2022/01/21 10:48:58;;;;;;;23.50;8.40;;;7.30;71.10;;;;;;5053572;28;20478;-76
2022/01/21 10:51:30;;;;;;;7.93;3.33;;;7.40;71.70;;;;;;5054045;28;20041;-75
2022/01/21 10:53:58;;;;;;;13.05;5.03;;;7.40;70.30;;;;;;5049763;28;20557;-75
2022/01/21 10:56:25;;;;;;;39.03;13.30;;;7.50;71.10;;;;;;5034294;28;20057;-75
2022/01/21 10:58:53;;;;;;;14.75;5.13;;;7.60;69.70;;;;;;5052676;28;20036;-75
2022/01/21 11:01:22;;;;;;;13.88;6.53;;;7.50;67.90;;;;;;5054275;28;20029;-76
2022/01/21 11:04:04;;;;;;;10.23;4.50;;;7.40;68.30;;;;;;5049142;28;20618;-75
2022/01/21 11:06:41;;;;;;;16.30;6.18;;;7.20;68.10;;;;;;5065981;28;20627;-75
2022/01/21 11:09:22;;;;;;;6.80;2.70;;;7.20;68.90;;;;;;5034451;28;20034;-75
2022/01/21 11:12:16;;;;;;;13.82;4.18;;;7.30;69.40;;;;;;5048580;28;20028;-75
2022/01/21 11:15:04;;;;;;;8.50;3.00;;;7.40;69.40;;;;;;5038338;28;20037;-75
2022/01/21 11:17:30;;;;;;;6.75;2.67;;;7.60;68.50;;;;;;5036568;28;20037;-75
2022/01/21 11:20:06;;;;;;;15.35;6.47;;;7.70;68.10;;;;;;5049358;28;20017;-75
2022/01/21 11:22:50;;;;;;;12.05;4.90;;;7.90;68.50;;;;;;5078092;28;20104;-74
2022/01/21 11:25:16;;;;;;;14.73;4.30;;;8.10;68.40;;;;;;5036586;28;20063;-75
2022/01/21 11:27:55;;;;;;;9.32;3.55;;;8.30;67.50;;;;;;5069936;28;20097;-75
2022/01/21 11:30:20;;;;;;;13.55;5.57;;;8.40;67.20;;;;;;5037899;28;20044;-75
2022/01/21 11:32:46;;;;;;;4.93;2.20;;;8.40;66.60;;;;;;5037805;28;20487;-75
2022/01/21 11:35:11;;;;;;;8.52;3.00;;;8.50;65.10;;;;;;5037617;28;20138;-75
2022/01/21 11:37:38;;;;;;;11.48;4.70;;;8.70;64.70;;;;;;5037607;28;20032;-75
2022/01/21 11:40:04;;;;;;;11.88;3.90;;;8.80;65.60;;;;;;5052807;28;20029;-75
2022/01/21 11:42:31;;;;;;;8.70;4.10;;;9.00;65.00;;;;;;5044823;28;20017;-75
2022/01/21 11:45:14;;;;;;;10.25;2.85;;;9.00;65.80;;;;;;5043498;28;20024;-74
2022/01/21 11:48:00;;;;;;;11.05;3.42;;;9.20;65.70;;;;;;5057166;28;20042;-75
2022/01/21 11:50:29;;;;;;;6.28;2.78;;;9.30;64.00;;;;;;5046263;28;20483;-74
2022/01/21 11:52:55;;;;;;;7.63;2.77;;;9.20;64.40;;;;;;5046034;28;20021;-75
2022/01/21 11:55:38;;;;;;;6.50;2.75;;;9.30;64.30;;;;;;5052731;28;20276;-76
2022/01/21 11:58:23;;;;;;;9.18;2.67;;;9.00;64.30;;;;;;5063216;28;20041;-75
2022/01/21 12:00:53;;;;;;;9.57;3.53;;;8.90;64.70;;;;;;5048375;28;20356;-76
2022/01/21 12:03:21;;;;;;;16.25;3.88;;;8.90;64.70;;;;;;5048681;28;20044;-77
2022/01/21 12:05:47;;;;;;;8.18;2.63;;;8.80;65.60;;;;;;5045218;28;20021;-76
2022/01/21 12:08:13;;;;;;;9.35;2.92;;;8.60;65.70;;;;;;5056054;28;20525;-76
2022/01/21 12:10:44;;;;;;;8.32;2.60;;;8.40;65.70;;;;;;5046418;28;20053;-75
2022/01/21 12:13:21;;;;;;;12.93;3.03;;;8.20;64.90;;;;;;5044992;28;20465;-75
2022/01/21 12:16:08;;;;;;;8.43;3.10;;;8.00;65.90;;;;;;5048564;28;20415;-75
2022/01/21 12:19:07;;;;;;;7.15;2.65;;;7.90;66.70;;;;;;5050675;28;20033;-75
2022/01/21 12:21:37;;;;;;;5.65;2.70;;;7.90;66.40;;;;;;5067331;28;20510;-75
2022/01/21 12:24:03;;;;;;;5.88;2.40;;;7.80;65.10;;;;;;5052428;28;20490;-75
2022/01/21 12:26:32;;;;;;;6.70;3.10;;;7.80;65.80;;;;;;5053367;28;20700;-75
2022/01/21 12:28:58;;;;;;;9.98;3.30;;;7.90;65.80;;;;;;5055745;28;20033;-75
2022/01/21 12:31:40;;;;;;;9.45;3.05;;;7.90;65.60;;;;;;5055226;28;20029;-75
2022/01/21 12:34:11;;;;;;;7.15;3.05;;;8.00;65.50;;;;;;5052579;28;20036;-75
2022/01/21 12:36:43;;;;;;;15.63;3.90;;;8.00;64.90;;;;;;5053537;28;20203;-75
2022/01/21 12:39:47;;;;;;;12.73;3.72;;;8.10;64.90;;;;;;5056190;28;20029;-76
2022/01/21 12:42:27;;;;;;;7.32;2.83;;;8.20;65.10;;;;;;5046961;28;20021;-76
2022/01/21 12:45:08;;;;;;;5.20;2.40;;;8.30;64.10;;;;;;5055297;28;20028;-76
2022/01/21 12:47:35;;;;;;;11.73;3.35;;;8.50;64.00;;;;;;5053080;28;20487;-76
2022/01/21 12:50:31;;;;;;;6.40;2.33;;;8.60;64.40;;;;;;5056129;28;20032;-76
2022/01/21 12:55:55;;;;;;;14.85;5.68;;;8.40;63.20;;;;;;5055790;28;20486;-76
2022/01/21 12:58:32;;;;;;;15.23;4.78;;;8.20;61.00;;;;;;5053030;28;20029;-76
2022/01/21 13:01:09;;;;;;;9.93;4.78;;;8.30;64.00;;;;;;5053968;28;20391;-76
2022/01/21 13:03:56;;;;;;;6.82;3.00;;;8.20;64.70;;;;;;5040220;28;20509;-76
2022/01/21 13:06:38;;;;;;;9.38;3.35;;;8.20;64.50;;;;;;5035785;28;20072;-76
2022/01/21 13:09:08;;;;;;;7.38;3.47;;;8.00;65.20;;;;;;5034591;28;20070;-76
2022/01/21 13:11:36;;;;;;;11.73;3.88;;;7.90;65.60;;;;;;5037714;28;20040;-76
2022/01/21 13:16:58;;;;;;;12.15;3.40;;;8.00;66.20;;;;;;5055796;28;20041;-76
2022/01/21 13:19:24;;;;;;;9.65;3.88;;;8.00;66.00;;;;;;5050377;28;20021;-76
2022/01/21 13:21:50;;;;;;;6.47;3.95;;;8.10;65.70;;;;;;5047387;28;20056;-76
2022/01/21 13:24:30;;;;;;;9.02;2.72;;;8.10;65.40;;;;;;5053276;28;20067;-76
2022/01/21 13:26:56;;;;;;;5.55;2.45;;;8.10;64.70;;;;;;5052768;28;20040;-75
2022/01/21 13:29:33;;;;;;;8.77;2.10;;;8.10;64.60;;;;;;5050837;28;20025;-76
2022/01/21 13:32:01;;;;;;;12.50;2.20;;;8.10;63.80;;;;;;5055164;28;20497;-75
2022/01/21 13:34:28;;;;;;;4.30;3.03;;;8.10;63.80;;;;;;5053139;28;20406;-76
2022/01/21 13:36:56;;;;;;;9.82;2.90;;;8.10;64.30;;;;;;5055367;28;20068;-75
2022/01/21 13:39:25;;;;;;;7.38;2.10;;;8.20;64.20;;;;;;5055330;28;20025;-76
2022/01/21 13:41:56;;;;;;;6.63;2.83;;;8.30;63.30;;;;;;5053383;28;20024;-76
2022/01/21 13:44:32;;;;;;;6.97;2.67;;;8.40;62.40;;;;;;5046871;28;20025;-76
2022/01/21 13:47:01;;;;;;;8.18;2.80;;;8.20;62.30;;;;;;5054323;28;20025;-76
2022/01/21 13:49:27;;;;;;;11.40;3.75;;;8.30;63.70;;;;;;5055024;28;20032;-76
2022/01/21 13:51:58;;;;;;;5.05;3.05;;;8.50;63.00;;;;;;5053039;28;20037;-76
2022/01/21 13:54:32;;;;;;;11.00;3.60;;;8.30;62.00;;;;;;5054498;28;20033;-76
2022/01/21 13:56:58;;;;;;;10.20;3.80;;;8.30;62.00;;;;;;5052115;28;20094;-75
2022/01/21 13:59:24;;;;;;;10.77;3.80;;;8.30;62.00;;;;;;5054594;28;20024;-76